Time;durP1;ratioP1;P1;durP2;ratioP2;P2;SDS_P1;SDS_P2;PMS_P1;PMS_P2;Temp;Humidity;BMP_temperature;BMP_pressure;BME280_temperature;BME280_humidity;BME280_pressure;Samples;Min_cycle;Max_cycle;Signal;HPM_P1;HPM_P2
2022/01/31 00:01:13;;;;;;;;;;;;;;;17.69;34.27;100186.53;4997164;28;818;-69
2022/01/31 00:03:38;;;;;;;;;;;;;;;17.82;33.89;100184.16;4997156;28;1910;-66
2022/01/31 00:06:04;;;;;;;;;;;;;;;17.82;33.86;100200.69;4997694;28;1225;-65
2022/01/31 00:08:29;;;;;;;;;;;;;;;17.75;34.02;100185.38;4997511;28;1140;-65
2022/01/31 00:10:55;;;;;;;;;;;;;;;17.73;34.06;100203.28;5015469;28;1407;-64
2022/01/31 00:13:26;;;;;;;;;;;;;;;17.81;33.88;100201.78;5015712;28;743;-67
2022/01/31 00:15:57;;;;;;;;;;;;;;;17.70;34.39;100209.38;4998632;28;1233;-66
2022/01/31 00:18:22;;;;;;;;;;;;;;;17.89;33.98;100215.72;5009767;28;1353;-64
2022/01/31 00:20:48;;;;;;;;;;;;;;;17.64;34.29;100219.59;5001276;28;854;-66
2022/01/31 00:23:13;;;;;;;;;;;;;;;17.63;34.29;100209.72;4996923;28;1910;-64
2022/01/31 00:25:38;;;;;;;;;;;;;;;17.76;34.31;100217.22;4996435;28;993;-63
2022/01/31 00:28:04;;;;;;;;;;;;;;;17.77;34.27;100207.06;4997083;28;779;-64
2022/01/31 00:30:29;;;;;;;;;;;;;;;17.82;34.22;100206.97;5000300;28;987;-63
2022/01/31 00:32:55;;;;;;;;;;;;;;;17.85;33.96;100213.81;4998204;28;798;-64
2022/01/31 00:35:20;;;;;;;;;;;;;;;17.94;34.01;100212.09;4996486;28;770;-63
2022/01/31 00:37:46;;;;;;;;;;;;;;;17.89;34.17;100218.47;4979717;28;960;-63
2022/01/31 00:40:12;;;;;;;;;;;;;;;17.98;33.97;100226.06;4979493;28;1085;-63
2022/01/31 00:42:37;;;;;;;;;;;;;;;17.93;34.06;100235.19;4978928;28;1969;-63
2022/01/31 00:45:24;;;;;;;;;;;;;;;18.00;33.66;100224.66;5003145;28;1065;-62
2022/01/31 00:48:00;;;;;;;;;;;;;;;18.01;33.78;100237.28;5000060;28;810;-64
2022/01/31 00:50:25;;;;;;;;;;;;;;;18.04;33.88;100231.19;4995388;28;1452;-65
2022/01/31 00:52:51;;;;;;;;;;;;;;;17.97;33.77;100247.25;5019335;28;799;-64
2022/01/31 00:55:16;;;;;;;;;;;;;;;18.01;33.75;100253.81;5019002;28;804;-65
2022/01/31 00:57:42;;;;;;;;;;;;;;;18.06;33.85;100255.66;5013238;28;807;-66
2022/01/31 01:00:08;;;;;;;;;;;;;;;18.09;33.63;100242.13;5006112;28;866;-67
2022/01/31 01:02:34;;;;;;;;;;;;;;;18.06;33.92;100244.66;4982763;28;1914;-66
2022/01/31 01:05:00;;;;;;;;;;;;;;;18.07;33.84;100235.28;4999951;28;766;-66
2022/01/31 01:07:26;;;;;;;;;;;;;;;18.04;33.77;100231.19;4982362;28;1492;-68
2022/01/31 01:09:51;;;;;;;;;;;;;;;18.03;33.86;100231.50;5002297;28;953;-67
2022/01/31 01:12:17;;;;;;;;;;;;;;;18.18;33.56;100241.47;5002291;28;838;-65
2022/01/31 01:14:43;;;;;;;;;;;;;;;18.31;33.16;100232.44;5003825;28;817;-66
2022/01/31 01:17:08;;;;;;;;;;;;;;;18.25;33.56;100245.47;4982449;28;1002;-66
2022/01/31 01:19:34;;;;;;;;;;;;;;;18.20;33.62;100244.72;4999886;28;861;-67
2022/01/31 01:22:00;;;;;;;;;;;;;;;18.24;33.67;100245.78;4981909;28;1973;-68
2022/01/31 01:24:25;;;;;;;;;;;;;;;18.05;33.92;100237.53;4982576;28;1067;-69
2022/01/31 01:26:50;;;;;;;;;;;;;;;18.00;34.00;100256.84;4981688;28;1089;-69
2022/01/31 01:29:19;;;;;;;;;;;;;;;17.75;34.39;100265.13;4984445;28;1591;-65
2022/01/31 01:31:47;;;;;;;;;;;;;;;17.38;34.82;100261.13;4999683;28;862;-64
2022/01/31 01:34:12;;;;;;;;;;;;;;;17.26;35.49;100264.28;4981560;28;1120;-65
2022/01/31 01:36:39;;;;;;;;;;;;;;;17.13;35.40;100250.41;4985758;28;1360;-64
2022/01/31 01:39:04;;;;;;;;;;;;;;;16.92;35.82;100248.66;4981436;28;2107;-66
2022/01/31 01:41:30;;;;;;;;;;;;;;;16.91;35.82;100257.19;4981662;28;1112;-66
2022/01/31 01:43:56;;;;;;;;;;;;;;;17.14;35.82;100249.28;5000077;28;1981;-67
2022/01/31 01:46:21;;;;;;;;;;;;;;;17.35;35.05;100250.72;4981558;28;1421;-65
2022/01/31 01:48:47;;;;;;;;;;;;;;;17.41;35.00;100251.50;4981945;28;1098;-66
2022/01/31 01:51:13;;;;;;;;;;;;;;;17.50;35.01;100249.75;4981927;28;1205;-67
2022/01/31 01:53:39;;;;;;;;;;;;;;;17.54;34.86;100245.28;4981919;28;1237;-66
2022/01/31 01:56:04;;;;;;;;;;;;;;;17.68;34.61;100250.88;4998778;28;843;-66
2022/01/31 01:58:39;;;;;;;;;;;;;;;17.76;34.36;100241.97;4993175;28;1115;-64
2022/01/31 02:01:04;;;;;;;;;;;;;;;17.78;34.40;100245.28;4990871;28;1480;-66
2022/01/31 02:03:46;;;;;;;;;;;;;;;17.83;34.38;100247.13;4981398;28;1914;-71
2022/01/31 02:06:12;;;;;;;;;;;;;;;17.79;34.46;100251.59;4981894;28;1329;-69
2022/01/31 02:08:42;;;;;;;;;;;;;;;17.87;34.34;100259.19;4981264;28;1200;-64
2022/01/31 02:11:11;;;;;;;;;;;;;;;17.93;34.17;100247.00;4981083;28;944;-65
2022/01/31 02:13:41;;;;;;;;;;;;;;;17.91;34.02;100246.50;4981941;28;1277;-65
2022/01/31 02:16:07;;;;;;;;;;;;;;;17.91;34.30;100256.69;5002038;28;749;-64
2022/01/31 02:18:54;;;;;;;;;;;;;;;17.87;34.37;100247.38;4981265;28;1129;-65
2022/01/31 02:21:48;;;;;;;;;;;;;;;17.85;34.54;100249.59;4982791;28;1906;-65
2022/01/31 02:24:32;;;;;;;;;;;;;;;17.76;34.37;100252.97;5017069;28;1482;-66
2022/01/31 02:27:27;;;;;;;;;;;;;;;17.87;34.23;100253.69;4967277;28;1093;-67
2022/01/31 02:29:53;;;;;;;;;;;;;;;17.76;34.55;100249.44;5000353;28;1507;-64
2022/01/31 02:32:20;;;;;;;;;;;;;;;17.79;34.63;100251.59;4981374;28;1120;-65
2022/01/31 02:34:49;;;;;;;;;;;;;;;17.84;34.32;100259.78;4980933;28;1359;-68
2022/01/31 02:37:14;;;;;;;;;;;;;;;17.96;34.27;100259.38;4981015;28;1199;-66
2022/01/31 02:39:40;;;;;;;;;;;;;;;17.87;34.22;100256.44;4980549;28;2052;-69
2022/01/31 02:42:06;;;;;;;;;;;;;;;17.92;34.36;100256.41;4980799;28;1973;-68
2022/01/31 02:44:32;;;;;;;;;;;;;;;17.78;34.38;100272.78;5004725;28;1389;-66
2022/01/31 02:47:14;;;;;;;;;;;;;;;17.84;34.51;100259.78;4980611;28;1149;-64
2022/01/31 02:49:48;;;;;;;;;;;;;;;17.78;34.60;100261.78;4998565;28;967;-67
2022/01/31 02:52:15;;;;;;;;;;;;;;;17.97;34.27;100258.25;4983815;28;1115;-66
2022/01/31 02:54:42;;;;;;;;;;;;;;;17.75;34.55;100261.53;4979893;28;1238;-67
2022/01/31 02:57:07;;;;;;;;;;;;;;;17.78;34.60;100275.53;4980416;28;852;-68
2022/01/31 02:59:33;;;;;;;;;;;;;;;17.82;34.33;100261.97;4985179;28;1372;-66
2022/01/31 03:01:58;;;;;;;;;;;;;;;17.81;34.33;100265.88;4979972;28;1898;-64
2022/01/31 03:04:24;;;;;;;;;;;;;;;17.81;34.41;100267.78;4980278;28;1614;-67
2022/01/31 03:06:50;;;;;;;;;;;;;;;17.88;34.57;100259.97;4980281;28;1348;-68
2022/01/31 03:09:21;;;;;;;;;;;;;;;17.95;34.35;100260.50;4979980;28;1225;-65
2022/01/31 03:11:50;;;;;;;;;;;;;;;17.90;34.42;100249.53;4980088;28;1332;-65
2022/01/31 03:14:20;;;;;;;;;;;;;;;18.05;33.89;100254.03;4966114;28;1136;-74
2022/01/31 03:16:50;;;;;;;;;;;;;;;18.04;34.16;100263.41;4979891;28;1244;-71
2022/01/31 03:19:32;;;;;;;;;;;;;;;18.03;34.11;100267.25;4996977;28;1396;-68
2022/01/31 03:22:00;;;;;;;;;;;;;;;18.03;34.21;100265.31;4998529;28;1902;-70
2022/01/31 03:24:25;;;;;;;;;;;;;;;18.20;34.02;100266.75;4990363;28;1265;-68
2022/01/31 03:26:51;;;;;;;;;;;;;;;17.95;34.07;100271.50;4997094;28;754;-67
2022/01/31 03:29:17;;;;;;;;;;;;;;;18.06;34.11;100283.16;4994762;28;1233;-68
2022/01/31 03:31:42;;;;;;;;;;;;;;;18.15;34.07;100280.59;5003973;28;775;-67
2022/01/31 03:34:08;;;;;;;;;;;;;;;18.12;34.04;100276.50;4979959;28;1215;-68
2022/01/31 03:36:34;;;;;;;;;;;;;;;18.18;33.89;100280.00;4980053;28;1096;-64
2022/01/31 03:38:59;;;;;;;;;;;;;;;18.16;34.03;100279.47;4979430;28;2078;-65
2022/01/31 03:41:26;;;;;;;;;;;;;;;18.09;34.10;100283.41;4980118;28;1335;-66
2022/01/31 03:43:52;;;;;;;;;;;;;;;18.21;33.94;100276.66;4984076;28;1918;-65
2022/01/31 03:46:18;;;;;;;;;;;;;;;18.32;33.70;100282.84;4983625;28;1168;-67
2022/01/31 03:48:45;;;;;;;;;;;;;;;18.22;33.74;100286.56;4979857;28;1115;-71
2022/01/31 03:51:31;;;;;;;;;;;;;;;18.37;33.64;100289.09;4996805;28;1075;-69
2022/01/31 03:53:56;;;;;;;;;;;;;;;18.38;33.47;100298.94;4979205;28;1074;-65
2022/01/31 03:56:22;;;;;;;;;;;;;;;18.00;34.25;100293.41;4982269;28;1229;-64
2022/01/31 03:59:06;;;;;;;;;;;;;;;17.64;34.70;100291.06;5000103;28;853;-66
2022/01/31 04:01:31;;;;;;;;;;;;;;;17.56;34.79;100298.03;4980111;28;1305;-65
2022/01/31 04:03:57;;;;;;;;;;;;;;;17.26;35.46;100296.44;4997004;28;1973;-67
2022/01/31 04:06:23;;;;;;;;;;;;;;;17.20;35.70;100305.84;4996858;28;1246;-65
2022/01/31 04:08:49;;;;;;;;;;;;;;;17.03;35.86;100300.78;4999872;28;1254;-67
2022/01/31 04:11:15;;;;;;;;;;;;;;;17.03;36.19;100303.53;4997201;28;906;-65
2022/01/31 04:13:40;;;;;;;;;;;;;;;16.99;36.08;100307.94;4996685;28;1159;-66
2022/01/31 04:16:05;;;;;;;;;;;;;;;17.41;35.08;100312.75;5001779;28;1286;-65
2022/01/31 04:18:31;;;;;;;;;;;;;;;17.86;34.43;100318.03;5005630;28;1313;-67
2022/01/31 04:20:56;;;;;;;;;;;;;;;18.09;34.05;100308.16;4999599;28;1455;-65
2022/01/31 04:23:25;;;;;;;;;;;;;;;18.36;33.71;100325.16;5001387;28;1911;-64
2022/01/31 04:25:54;;;;;;;;;;;;;;;18.40;33.52;100329.78;5000827;28;849;-67
2022/01/31 04:28:32;;;;;;;;;;;;;;;18.56;33.13;100340.56;5000048;28;1230;-67
2022/01/31 04:31:01;;;;;;;;;;;;;;;18.42;33.41;100327.53;5000598;28;1187;-66
2022/01/31 04:33:27;;;;;;;;;;;;;;;17.12;35.58;100322.94;5001273;28;1163;-66
2022/01/31 04:35:53;;;;;;;;;;;;;;;17.21;35.69;100334.97;5007296;28;1392;-67
2022/01/31 04:38:18;;;;;;;;;;;;;;;16.87;35.98;100333.84;5016682;28;1496;-66
2022/01/31 04:40:44;;;;;;;;;;;;;;;16.93;36.09;100342.88;5019350;28;744;-66
2022/01/31 04:43:09;;;;;;;;;;;;;;;16.72;36.39;100334.75;5019317;28;1909;-66
2022/01/31 04:45:35;;;;;;;;;;;;;;;16.55;36.95;100337.03;5012257;28;1246;-69
2022/01/31 04:48:00;;;;;;;;;;;;;;;16.87;36.42;100354.97;5009448;28;1081;-66
2022/01/31 04:50:25;;;;;;;;;;;;;;;18.04;34.15;100341.25;5000660;28;905;-65
2022/01/31 04:52:51;;;;;;;;;;;;;;;18.20;33.76;100355.66;5000078;28;961;-65
2022/01/31 04:55:16;;;;;;;;;;;;;;;17.81;34.33;100358.53;5000195;28;917;-69
2022/01/31 04:57:42;;;;;;;;;;;;;;;17.67;34.56;100363.91;5000136;28;766;-67
2022/01/31 05:00:08;;;;;;;;;;;;;;;17.56;34.85;100364.03;5002836;28;853;-64
2022/01/31 05:02:33;;;;;;;;;;;;;;;17.62;34.94;100351.03;5000383;28;1910;-65
2022/01/31 05:04:59;;;;;;;;;;;;;;;17.60;34.97;100356.84;5000358;28;751;-64
2022/01/31 05:07:24;;;;;;;;;;;;;;;17.58;34.86;100352.72;5000354;28;738;-66
2022/01/31 05:09:49;;;;;;;;;;;;;;;17.45;35.17;100357.81;5000117;28;894;-67
2022/01/31 05:12:15;;;;;;;;;;;;;;;17.47;35.16;100362.19;5005068;28;853;-66
2022/01/31 05:14:40;;;;;;;;;;;;;;;17.41;35.29;100364.97;5012219;28;893;-67
2022/01/31 05:17:06;;;;;;;;;;;;;;;17.36;35.33;100369.72;4999461;28;763;-65
2022/01/31 05:19:31;;;;;;;;;;;;;;;17.35;35.13;100366.16;4999815;28;799;-64
2022/01/31 05:21:57;;;;;;;;;;;;;;;17.38;35.19;100378.50;5000167;28;1953;-68
2022/01/31 05:24:22;;;;;;;;;;;;;;;17.45;35.18;100374.28;4999412;28;979;-65
2022/01/31 05:26:50;;;;;;;;;;;;;;;17.21;35.47;100374.25;5001158;28;859;-64
2022/01/31 05:29:19;;;;;;;;;;;;;;;17.25;35.27;100371.72;5010914;28;858;-64
2022/01/31 05:31:44;;;;;;;;;;;;;;;17.39;35.23;100380.13;5000709;28;964;-66
2022/01/31 05:34:11;;;;;;;;;;;;;;;17.32;35.09;100377.72;5000005;28;790;-68
2022/01/31 05:36:36;;;;;;;;;;;;;;;17.22;35.29;100378.63;4999487;28;969;-69
2022/01/31 05:39:02;;;;;;;;;;;;;;;17.40;34.89;100379.84;5004407;28;771;-68
2022/01/31 05:41:27;;;;;;;;;;;;;;;17.33;35.00;100382.09;5001320;28;933;-69
2022/01/31 05:43:53;;;;;;;;;;;;;;;17.23;35.48;100387.69;5004119;28;1905;-63
2022/01/31 05:46:18;;;;;;;;;;;;;;;17.23;35.34;100399.47;5001860;28;877;-62
2022/01/31 05:48:43;;;;;;;;;;;;;;;17.28;35.21;100407.69;4999347;28;808;-65
2022/01/31 05:51:13;;;;;;;;;;;;;;;17.19;35.52;100408.59;5000729;28;747;-64
2022/01/31 05:53:38;;;;;;;;;;;;;;;17.34;35.09;100400.22;4998883;28;822;-62
2022/01/31 05:56:04;;;;;;;;;;;;;;;17.39;35.09;100402.94;4997588;28;897;-62
2022/01/31 05:58:29;;;;;;;;;;;;;;;17.26;35.26;100409.09;4999360;28;720;-62
2022/01/31 06:00:55;;;;;;;;;;;;;;;17.22;35.35;100408.03;5001326;28;956;-63
2022/01/31 06:03:20;;;;;;;;;;;;;;;17.36;35.38;100411.78;5003917;28;1981;-64
2022/01/31 06:05:46;;;;;;;;;;;;;;;17.42;35.16;100407.84;5007950;28;939;-63
2022/01/31 06:08:11;;;;;;;;;;;;;;;17.27;35.14;100427.22;5017405;28;1224;-64
2022/01/31 06:10:42;;;;;;;;;;;;;;;17.38;35.10;100431.53;5018149;28;746;-63
2022/01/31 06:13:08;;;;;;;;;;;;;;;17.47;34.86;100436.41;5017463;28;826;-63
2022/01/31 06:15:33;;;;;;;;;;;;;;;17.53;34.75;100435.25;5003216;28;1450;-66
2022/01/31 06:17:58;;;;;;;;;;;;;;;17.51;34.81;100430.03;4998881;28;1489;-66
2022/01/31 06:20:24;;;;;;;;;;;;;;;17.52;35.06;100434.44;4998672;28;738;-66
2022/01/31 06:22:53;;;;;;;;;;;;;;;17.40;35.18;100440.31;4999073;28;1985;-66
2022/01/31 06:25:18;;;;;;;;;;;;;;;17.33;35.24;100431.56;4998434;28;1023;-64
2022/01/31 06:27:44;;;;;;;;;;;;;;;17.26;35.46;100442.06;4997070;28;1489;-66
2022/01/31 06:30:10;;;;;;;;;;;;;;;17.14;35.33;100430.59;5006429;28;1140;-63
2022/01/31 06:32:36;;;;;;;;;;;;;;;17.33;35.29;100436.25;4997511;28;1099;-64
2022/01/31 06:35:01;;;;;;;;;;;;;;;17.24;35.30;100452.53;4999899;28;1168;-62
2022/01/31 06:37:27;;;;;;;;;;;;;;;17.30;35.09;100434.88;5016544;28;1061;-64
2022/01/31 06:39:52;;;;;;;;;;;;;;;17.30;35.05;100464.31;5016821;28;1307;-63
2022/01/31 06:42:18;;;;;;;;;;;;;;;17.24;35.43;100441.53;5015857;28;1918;-62
2022/01/31 06:44:43;;;;;;;;;;;;;;;17.27;35.27;100444.53;5015842;28;939;-62
2022/01/31 06:47:09;;;;;;;;;;;;;;;17.47;34.67;100453.72;5017260;28;1235;-64
2022/01/31 06:49:34;;;;;;;;;;;;;;;17.73;34.29;100453.50;5018932;28;1362;-68
2022/01/31 06:51:59;;;;;;;;;;;;;;;17.98;34.17;100457.13;5012789;28;1591;-66
2022/01/31 06:54:25;;;;;;;;;;;;;;;18.05;33.64;100458.44;5015626;28;1509;-66
2022/01/31 06:56:50;;;;;;;;;;;;;;;18.03;33.91;100455.16;5013944;28;1579;-65
2022/01/31 06:59:16;;;;;;;;;;;;;;;18.22;33.60;100462.69;5012241;28;1398;-66
2022/01/31 07:01:41;;;;;;;;;;;;;;;18.25;33.99;100454.63;5010094;28;1556;-61
2022/01/31 07:04:07;;;;;;;;;;;;;;;18.45;34.01;100456.34;5004904;28;1973;-64
2022/01/31 07:06:32;;;;;;;;;;;;;;;18.54;33.79;100440.00;5005522;28;1382;-62
2022/01/31 07:08:59;;;;;;;;;;;;;;;18.41;34.49;100455.28;5012339;28;1577;-62
2022/01/31 07:11:28;;;;;;;;;;;;;;;17.85;36.23;100448.44;5017949;28;1389;-61
2022/01/31 07:14:02;;;;;;;;;;;;;;;17.40;37.32;100448.56;5003804;28;1255;-64
2022/01/31 07:16:28;;;;;;;;;;;;;;;16.56;39.35;100448.50;5006611;28;1461;-63
2022/01/31 07:19:01;;;;;;;;;;;;;;;16.86;38.56;100438.47;5008874;28;1325;-65
2022/01/31 07:21:34;;;;;;;;;;;;;;;16.80;38.85;100434.09;5022718;28;1449;-71
2022/01/31 07:24:44;;;;;;;;;;;;;;;16.81;38.56;100430.25;5002556;28;1965;-63
2022/01/31 07:26:51;;;;;;;;;;;;;;;16.82;38.76;100434.66;5001379;28;1359;-65
2022/01/31 07:29:19;;;;;;;;;;;;;;;16.82;38.57;100420.91;5002455;28;888;-73
2022/01/31 07:31:45;;;;;;;;;;;;;;;16.82;38.64;100434.66;5010622;28;1281;-62
2022/01/31 07:34:11;;;;;;;;;;;;;;;16.94;39.06;100446.13;5010697;28;1566;-66
2022/01/31 07:36:36;;;;;;;;;;;;;;;17.13;38.75;100429.78;5014438;28;1349;-65
2022/01/31 07:39:02;;;;;;;;;;;;;;;17.83;36.98;100425.09;5006863;28;1511;-64
2022/01/31 07:41:27;;;;;;;;;;;;;;;18.37;36.15;100423.97;5028541;28;1390;-66
2022/01/31 07:43:53;;;;;;;;;;;;;;;18.62;35.56;100427.47;5013242;28;1906;-69
2022/01/31 07:46:18;;;;;;;;;;;;;;;18.93;35.03;100429.88;5009182;28;1410;-68
2022/01/31 07:48:44;;;;;;;;;;;;;;;18.28;36.17;100425.72;4999865;28;1403;-64
2022/01/31 07:51:10;;;;;;;;;;;;;;;18.26;36.61;100427.97;5006399;28;1429;-65
2022/01/31 07:53:38;;;;;;;;;;;;;;;16.64;39.58;100436.91;5005201;28;1561;-64
2022/01/31 07:56:07;;;;;;;;;;;;;;;17.14;38.93;100419.63;5002433;28;1458;-60
2022/01/31 07:58:32;;;;;;;;;;;;;;;17.15;38.72;100415.78;5014290;28;1416;-66
2022/01/31 08:00:59;;;;;;;;;;;;;;;17.07;38.73;100417.22;5016843;28;1631;-68
2022/01/31 08:03:25;;;;;;;;;;;;;;;17.02;38.51;100414.50;5021242;28;1985;-67
2022/01/31 08:05:50;;;;;;;;;;;;;;;16.91;38.59;100408.25;5015130;28;1536;-71
2022/01/31 08:08:16;;;;;;;;;;;;;;;16.54;39.36;100404.03;5019195;28;1348;-74
2022/01/31 08:10:42;;;;;;;;;;;;;;;17.96;37.81;100410.66;5019951;28;1532;-74
2022/01/31 08:13:08;;;;;;;;;;;;;;;19.07;35.45;100408.69;5010685;28;1513;-72
2022/01/31 08:15:44;;;;;;;;;;;;;;;19.54;34.30;100400.47;5022122;28;1505;-75
2022/01/31 08:18:09;;;;;;;;;;;;;;;19.88;33.90;100393.00;5016579;28;1365;-76
2022/01/31 08:20:35;;;;;;;;;;;;;;;20.09;33.47;100397.00;5013954;28;1459;-70
2022/01/31 08:23:00;;;;;;;;;;;;;;;20.22;33.15;100394.56;5011159;28;1902;-71
2022/01/31 08:25:26;;;;;;;;;;;;;;;20.41;32.71;100392.50;5017944;28;1612;-76
2022/01/31 08:27:55;;;;;;;;;;;;;;;20.54;32.75;100401.03;5006578;28;1485;-71
2022/01/31 08:30:25;;;;;;;;;;;;;;;20.41;32.70;100395.25;5010941;28;1588;-74
2022/01/31 08:33:02;;;;;;;;;;;;;;;19.51;34.55;100400.28;5000633;28;1572;-70
2022/01/31 08:38:11;;;;;;;;;;;;;;;19.52;34.52;100399.13;5007604;28;1414;-75
2022/01/31 08:40:37;;;;;;;;;;;;;;;19.87;34.00;100394.16;5020776;28;1481;-66
2022/01/31 08:43:02;;;;;;;;;;;;;;;20.16;33.32;100402.94;5004784;28;1894;-65
2022/01/31 08:45:28;;;;;;;;;;;;;;;20.46;32.60;100399.84;5010528;28;1252;-64
2022/01/31 08:47:53;;;;;;;;;;;;;;;20.66;32.23;100393.03;5010046;28;1688;-68
2022/01/31 08:50:19;;;;;;;;;;;;;;;20.79;32.25;100395.00;5018316;28;1511;-69
2022/01/31 08:52:44;;;;;;;;;;;;;;;20.10;33.11;100406.91;5007637;28;1526;-67
2022/01/31 08:55:11;;;;;;;;;;;;;;;19.56;34.28;100402.94;5013228;28;1286;-69
2022/01/31 08:57:37;;;;;;;;;;;;;;;19.14;34.82;100405.56;5014680;28;1054;-67
2022/01/31 09:00:06;;;;;;;;;;;;;;;19.53;34.31;100404.38;5014058;28;1338;-67
2022/01/31 09:02:39;;;;;;;;;;;;;;;20.01;33.19;100400.47;5006713;28;1974;-67
2022/01/31 09:05:05;;;;;;;;;;;;;;;20.43;32.41;100386.66;5013805;28;1426;-67
2022/01/31 09:07:30;;;;;;;;;;;;;;;20.60;32.11;100388.78;4999682;28;846;-67
2022/01/31 09:09:57;;;;;;;;;;;;;;;20.72;31.79;100391.84;5013547;28;1379;-67
2022/01/31 09:12:25;;;;;;;;;;;;;;;20.81;31.75;100403.78;5014738;28;1349;-67
2022/01/31 09:14:50;;;;;;;;;;;;;;;20.35;32.58;100396.47;5012631;28;1359;-67
2022/01/31 09:17:16;;;;;;;;;;;;;;;19.92;33.29;100392.09;5008916;28;1544;-67
2022/01/31 09:19:41;;;;;;;;;;;;;;;18.93;35.06;100392.09;5007879;28;1108;-68
2022/01/31 09:22:07;;;;;;;;;;;;;;;19.69;33.63;100388.34;5010167;28;1910;-67
2022/01/31 09:24:37;;;;;;;;;;;;;;;20.16;32.62;100383.63;5010650;28;1498;-68
2022/01/31 09:27:03;;;;;;;;;;;;;;;20.49;32.06;100377.94;5016293;28;1406;-67
2022/01/31 09:29:29;;;;;;;;;;;;;;;20.73;31.64;100376.06;5011955;28;1612;-67
2022/01/31 09:31:54;;;;;;;;;;;;;;;20.88;31.60;100361.09;5014785;28;1505;-69
2022/01/31 09:34:21;;;;;;;;;;;;;;;20.57;31.93;100361.78;5011937;28;1291;-67
2022/01/31 09:36:47;;;;;;;;;;;;;;;19.95;33.22;100374.09;5004662;28;1433;-67
2022/01/31 09:39:12;;;;;;;;;;;;;;;19.69;33.38;100368.25;5011976;28;1224;-67
2022/01/31 09:41:40;;;;;;;;;;;;;;;19.12;34.69;100358.19;5014571;28;1430;-66
2022/01/31 09:44:13;;;;;;;;;;;;;;;19.94;33.14;100356.72;5008023;28;1914;-66
2022/01/31 09:47:04;;;;;;;;;;;;;;;20.35;32.41;100360.56;5003691;28;1246;-65
2022/01/31 09:49:30;;;;;;;;;;;;;;;20.52;31.81;100355.25;5007253;28;1160;-66
2022/01/31 09:51:55;;;;;;;;;;;;;;;20.65;31.61;100349.97;5001631;28;1325;-66
2022/01/31 09:54:21;;;;;;;;;;;;;;;20.73;31.36;100340.97;5005060;28;1186;-66
2022/01/31 09:56:46;;;;;;;;;;;;;;;20.85;31.31;100340.44;5007186;28;1015;-66
2022/01/31 09:59:12;;;;;;;;;;;;;;;19.58;33.17;100332.56;5008565;28;1022;-65
2022/01/31 10:01:47;;;;;;;;;;;;;;;19.54;33.31;100327.97;5004412;28;1273;-66
2022/01/31 10:04:19;;;;;;;;;;;;;;;19.22;33.94;100335.16;4998275;28;1906;-65
2022/01/31 10:06:46;;;;;;;;;;;;;;;19.88;32.96;100318.50;5007705;28;1048;-66
2022/01/31 10:09:17;;;;;;;;;;;;;;;20.24;32.06;100324.09;5001928;28;1174;-66
2022/01/31 10:11:53;;;;;;;;;;;;;;;20.45;31.82;100309.81;5002926;28;1278;-66
2022/01/31 10:17:04;;;;;;;;;;;;;;;20.73;31.02;100312.53;4997183;28;1197;-66
2022/01/31 10:19:29;;;;;;;;;;;;;;;20.80;30.75;100302.69;4998842;28;862;-66
2022/01/31 10:22:02;;;;;;;;;;;;;;;20.04;32.20;100306.03;4994405;28;1285;-66
2022/01/31 10:24:28;;;;;;;;;;;;;;;19.66;32.62;100308.97;5001006;28;2004;-65
2022/01/31 10:26:53;;;;;;;;;;;;;;;18.71;34.61;100299.03;4998900;28;1090;-66
2022/01/31 10:29:19;;;;;;;;;;;;;;;19.80;32.69;100296.03;5004393;28;1276;-65
2022/01/31 10:32:01;;;;;;;;;;;;;;;20.12;32.09;100291.50;5003987;28;1224;-67
2022/01/31 10:34:28;;;;;;;;;;;;;;;20.47;31.61;100286.31;4995526;28;1226;-67
2022/01/31 10:36:53;;;;;;;;;;;;;;;20.68;30.90;100286.66;4997222;28;841;-67
2022/01/31 10:45:20;;;;;;;;;;;;;;;19.81;32.48;100259.03;5004548;28;850;-66
2022/01/31 10:53:11;;;;;;;;;;;;;;;20.23;31.75;100247.94;5000722;28;1415;-67
2022/01/31 10:55:36;;;;;;;;;;;;;;;20.46;31.49;100240.47;4999016;28;953;-71
2022/01/31 10:58:03;;;;;;;;;;;;;;;20.63;31.21;100244.50;5011824;28;1251;-70
2022/01/31 11:00:32;;;;;;;;;;;;;;;20.73;30.83;100227.69;5002888;28;881;-70
2022/01/31 11:02:57;;;;;;;;;;;;;;;20.83;30.89;100218.31;4999033;28;1906;-66
2022/01/31 11:05:23;;;;;;;;;;;;;;;19.88;32.37;100225.53;5009922;28;1226;-65
2022/01/31 11:07:49;;;;;;;;;;;;;;;19.79;32.48;100228.16;5005557;28;1249;-73
2022/01/31 11:10:17;;;;;;;;;;;;;;;18.96;34.17;100228.94;5001790;28;1051;-72
2022/01/31 11:12:43;;;;;;;;;;;;;;;20.01;32.41;100229.38;4995995;28;1273;-71
2022/01/31 11:15:08;;;;;;;;;;;;;;;20.29;31.71;100221.03;4997210;28;1207;-70
2022/01/31 11:17:35;;;;;;;;;;;;;;;20.63;31.17;100225.97;4988319;28;799;-70
2022/01/31 11:20:02;;;;;;;;;;;;;;;20.83;30.74;100210.88;5006504;28;1251;-71
2022/01/31 11:22:35;;;;;;;;;;;;;;;20.77;31.07;100212.13;5003380;28;1974;-67
2022/01/31 11:25:03;;;;;;;;;;;;;;;19.81;32.46;100208.56;5000368;28;1222;-74
2022/01/31 11:27:29;;;;;;;;;;;;;;;19.52;33.05;100206.09;5002712;28;743;-74
2022/01/31 11:29:55;;;;;;;;;;;;;;;19.32;33.53;100210.91;4999251;28;872;-72
2022/01/31 11:32:21;;;;;;;;;;;;;;;19.92;32.35;100203.63;4997351;28;732;-72
2022/01/31 11:34:46;;;;;;;;;;;;;;;20.35;31.77;100209.50;5000853;28;988;-72
2022/01/31 11:37:13;;;;;;;;;;;;;;;20.56;31.12;100199.94;5000313;28;1142;-73
2022/01/31 11:39:39;;;;;;;;;;;;;;;20.73;31.00;100205.59;5013571;28;1301;-69
2022/01/31 11:42:05;;;;;;;;;;;;;;;20.88;30.63;100201.63;5011269;28;1353;-72
2022/01/31 11:44:33;;;;;;;;;;;;;;;21.00;30.37;100195.53;5002059;28;1910;-68
2022/01/31 11:47:01;;;;;;;;;;;;;;;20.37;31.62;100198.19;5015100;28;1307;-68
2022/01/31 11:49:41;;;;;;;;;;;;;;;19.68;32.78;100182.59;5010316;28;1234;-67
2022/01/31 11:52:07;;;;;;;;;;;;;;;18.53;34.44;100192.50;5009928;28;1229;-67
2022/01/31 11:54:36;;;;;;;;;;;;;;;16.63;38.44;100198.38;5008827;28;1297;-65
2022/01/31 11:57:11;;;;;;;;;;;;;;;17.49;36.70;100175.78;5000518;28;1661;-65
2022/01/31 11:59:36;;;;;;;;;;;;;;;17.72;36.02;100183.19;5013372;28;1429;-65
2022/01/31 12:05:28;;;;;;;;;;;;;;;17.75;35.97;100163.38;5010410;28;1392;-65
2022/01/31 12:08:11;;;;;;;;;;;;;;;17.85;35.66;100161.56;5015473;28;1286;-63
2022/01/31 12:10:39;;;;;;;;;;;;;;;17.76;36.08;100164.19;5006471;28;1394;-65
2022/01/31 12:13:19;;;;;;;;;;;;;;;17.74;36.05;100161.72;5006725;28;1244;-63
2022/01/31 12:23:49;;;;;;;;;;;;;;;17.78;36.05;100154.53;5009191;28;1910;-64
2022/01/31 12:26:33;;;;;;;;;;;;;;;17.77;35.88;100146.56;5014540;28;1644;-65
2022/01/31 12:29:01;;;;;;;;;;;;;;;17.85;35.70;100131.31;4997459;28;837;-68
2022/01/31 12:31:42;;;;;;;;;;;;;;;17.89;35.66;100146.94;5001536;28;1226;-65
2022/01/31 12:34:23;;;;;;;;;;;;;;;17.91;35.87;100143.94;5000643;28;1156;-64
2022/01/31 12:36:50;;;;;;;;;;;;;;;17.88;35.79;100149.97;4997330;28;916;-63
2022/01/31 12:42:32;;;;;;;;;;;;;;;17.84;35.63;100110.41;5004358;28;1110;-64
2022/01/31 12:44:57;;;;;;;;;;;;;;;17.05;37.29;100134.53;5006993;28;1150;-63
2022/01/31 12:47:23;;;;;;;;;;;;;;;16.85;38.02;100134.75;5018005;28;1245;-65
2022/01/31 12:50:07;;;;;;;;;;;;;;;16.61;38.42;100135.53;5002410;28;822;-63
2022/01/31 12:52:35;;;;;;;;;;;;;;;17.20;36.99;100141.00;5016960;28;1324;-63
2022/01/31 12:55:10;;;;;;;;;;;;;;;17.44;36.41;100124.47;5009824;28;1528;-63
2022/01/31 12:57:45;;;;;;;;;;;;;;;17.51;36.63;100130.41;5006275;28;1512;-64
2022/01/31 13:00:11;;;;;;;;;;;;;;;17.62;36.25;100136.59;5009334;28;1341;-64
2022/01/31 13:02:46;;;;;;;;;;;;;;;17.65;36.29;100138.75;5008423;28;1902;-64
2022/01/31 13:05:11;;;;;;;;;;;;;;;17.64;35.99;100128.84;5013933;28;1167;-64
2022/01/31 13:07:37;;;;;;;;;;;;;;;17.55;35.99;100119.66;5015233;28;1301;-62
2022/01/31 13:10:09;;;;;;;;;;;;;;;17.40;36.22;100138.00;5004269;28;886;-61
2022/01/31 13:12:35;;;;;;;;;;;;;;;17.55;36.09;100125.97;5004873;28;1184;-65
2022/01/31 13:15:01;;;;;;;;;;;;;;;17.63;36.07;100127.25;5004181;28;1144;-62
2022/01/31 13:17:27;;;;;;;;;;;;;;;17.71;36.01;100139.50;5011245;28;1421;-62
2022/01/31 13:19:59;;;;;;;;;;;;;;;17.63;36.06;100127.25;5010193;28;1231;-64
2022/01/31 13:22:34;;;;;;;;;;;;;;;17.54;36.29;100129.00;4999915;28;2232;-62
2022/01/31 13:25:03;;;;;;;;;;;;;;;17.60;36.17;100130.59;5012584;28;1540;-68